createdAt,value
2018-06-10T00:00:39.906Z,98614
2018-06-10T00:02:45.517Z,98608
2018-06-10T00:04:51.513Z,98607
2018-06-10T00:06:56.903Z,98607
2018-06-10T00:09:02.158Z,98602
2018-06-10T00:11:10.406Z,98599
2018-06-10T00:13:17.678Z,98591
2018-06-10T00:15:25.626Z,98594
2018-06-10T00:17:32.370Z,98587
2018-06-10T00:19:38.134Z,98578
2018-06-10T00:21:43.420Z,98586
2018-06-10T00:23:48.922Z,98584
2018-06-10T00:25:54.162Z,98580
2018-06-10T00:27:59.399Z,98571
2018-06-10T00:30:05.567Z,98572
2018-06-10T00:32:14.706Z,98569
2018-06-10T00:34:21.321Z,98581
2018-06-10T00:36:29.050Z,98582
2018-06-10T00:38:34.518Z,98583
2018-06-10T00:40:40.166Z,98584
2018-06-10T00:42:46.492Z,98581
2018-06-10T00:44:51.979Z,98581
2018-06-10T00:46:58.335Z,98583
2018-06-10T00:49:04.749Z,98578
2018-06-10T00:51:13.720Z,98577
2018-06-10T00:53:23.200Z,98580
2018-06-10T00:55:29.417Z,98584
2018-06-10T00:57:35.712Z,98595
2018-06-10T00:59:41.950Z,98595
2018-06-10T01:01:47.455Z,98598
2018-06-10T01:03:52.982Z,98598
2018-06-10T01:05:58.856Z,98602
2018-06-10T01:08:04.470Z,98607
2018-06-10T01:10:14.299Z,98608
2018-06-10T01:12:23.183Z,98602
2018-06-10T01:14:29.434Z,98605
2018-06-10T01:16:34.893Z,98605
2018-06-10T01:18:40.292Z,98605
2018-06-10T01:20:46.841Z,98608
2018-06-10T01:22:52.115Z,98608
2018-06-10T01:24:57.346Z,98610
2018-06-10T01:27:03.023Z,98609
2018-06-10T01:29:11.057Z,98609
2018-06-10T01:31:19.994Z,98615
2018-06-10T01:33:29.737Z,98606
2018-06-10T01:35:35.979Z,98607
2018-06-10T01:37:42.872Z,98612
2018-06-10T01:39:49.241Z,98607
2018-06-10T01:41:55.302Z,98601
2018-06-10T01:44:02.207Z,98603
2018-06-10T01:46:10.901Z,98605
2018-06-10T01:48:18.522Z,98599
2018-06-10T01:50:27.416Z,98603
2018-06-10T01:52:33.702Z,98604
2018-06-10T01:54:39.676Z,98598
2018-06-10T01:56:45.594Z,98597
2018-06-10T01:58:51.946Z,98600
2018-06-10T02:00:57.313Z,98596
2018-06-10T02:03:03.278Z,98598
2018-06-10T02:05:13.094Z,98599
2018-06-10T02:07:24.067Z,98601
2018-06-10T02:09:30.216Z,98600
2018-06-10T02:11:36.597Z,98605
2018-06-10T02:13:42.831Z,98605
2018-06-10T02:15:49.725Z,98608
2018-06-10T02:17:56.313Z,98611
2018-06-10T02:20:02.920Z,98616
2018-06-10T02:22:12.774Z,98620
2018-06-10T02:24:27.936Z,98626
2018-06-10T02:26:33.719Z,98631
2018-06-10T02:28:40.082Z,98626
2018-06-10T02:30:46.310Z,98627
2018-06-10T02:32:52.278Z,98621
2018-06-10T02:34:58.482Z,98621
2018-06-10T02:37:04.808Z,98626
2018-06-10T02:39:14.847Z,98623
2018-06-10T02:41:23.159Z,98626
2018-06-10T02:43:29.650Z,98620
2018-06-10T02:45:35.715Z,98620
2018-06-10T02:47:41.781Z,98620
2018-06-10T02:49:47.831Z,98627
2018-06-10T02:51:54.140Z,98622
2018-06-10T02:54:00.031Z,98619
2018-06-10T02:56:06.032Z,98629
2018-06-10T02:58:15.554Z,98626
2018-06-10T03:00:23.351Z,98629
2018-06-10T03:02:29.202Z,98636
2018-06-10T03:04:35.511Z,98634
2018-06-10T03:06:40.982Z,98626
2018-06-10T03:08:46.923Z,98624
2018-06-10T03:10:52.486Z,98624
2018-06-10T03:12:58.590Z,98615
2018-06-10T03:15:05.506Z,98618
2018-06-10T03:17:14.310Z,98622
2018-06-10T03:19:22.468Z,98622
2018-06-10T03:21:27.795Z,98621
2018-06-10T03:23:34.011Z,98621
2018-06-10T03:25:39.850Z,98623
2018-06-10T03:27:45.652Z,98631
2018-06-10T03:29:51.402Z,98626
2018-06-10T03:31:57.552Z,98630
2018-06-10T03:34:03.055Z,98620
2018-06-10T03:36:12.587Z,98620
2018-06-10T03:38:23.898Z,98615
2018-06-10T03:40:29.634Z,98615
2018-06-10T03:42:35.946Z,98619
2018-06-10T03:44:42.456Z,98621
2018-06-10T03:46:48.243Z,98620
2018-06-10T03:48:54.499Z,98623
2018-06-10T03:51:00.168Z,98619
2018-06-10T03:53:06.925Z,98614
2018-06-10T03:55:18.570Z,98623
2018-06-10T03:57:25.603Z,98625
2018-06-10T03:59:31.214Z,98618
2018-06-10T04:01:37.154Z,98622
2018-06-10T04:03:42.835Z,98621
2018-06-10T04:05:48.758Z,98620
2018-06-10T04:07:55.138Z,98621
2018-06-10T04:10:00.773Z,98618
2018-06-10T04:12:08.425Z,98624
2018-06-10T04:14:19.676Z,98622
2018-06-10T04:16:29.051Z,98628
2018-06-10T04:18:34.945Z,98629
2018-06-10T04:20:40.943Z,98634
2018-06-10T04:22:47.038Z,98629
2018-06-10T04:24:52.819Z,98624
2018-06-10T04:26:58.743Z,98632
2018-06-10T04:29:04.936Z,98629
2018-06-10T04:31:17.964Z,98633
2018-06-10T04:33:25.426Z,98626
2018-06-10T04:35:31.207Z,98632
2018-06-10T04:37:37.386Z,98631
2018-06-10T04:39:43.802Z,98631
2018-06-10T04:41:49.505Z,98624
2018-06-10T04:43:55.882Z,98630
2018-06-10T04:46:01.953Z,98631
2018-06-10T04:48:10.419Z,98633
2018-06-10T04:50:19.821Z,98633
2018-06-10T04:52:26.582Z,98638
2018-06-10T04:54:32.586Z,98631
2018-06-10T04:56:38.569Z,98629
2018-06-10T04:58:44.062Z,98635
2018-06-10T05:00:49.283Z,98628
2018-06-10T05:02:54.930Z,98629
2018-06-10T05:05:01.768Z,98632
2018-06-10T05:07:10.459Z,98630
2018-06-10T05:09:20.252Z,98623
2018-06-10T05:11:27.304Z,98630
2018-06-10T05:13:35.986Z,98632
2018-06-10T05:15:41.670Z,98629
2018-06-10T05:17:47.765Z,98637
2018-06-10T05:19:53.710Z,98637
2018-06-10T05:21:59.720Z,98633
2018-06-10T05:24:07.290Z,98637
2018-06-10T05:26:16.164Z,98633
2018-06-10T05:28:24.439Z,98631
2018-06-10T05:30:30.560Z,98626
2018-06-10T05:32:36.554Z,98631
2018-06-10T05:34:42.098Z,98631
2018-06-10T05:36:48.141Z,98635
2018-06-10T05:38:55.155Z,98630
2018-06-10T05:41:00.850Z,98631
2018-06-10T05:43:08.457Z,98633
2018-06-10T05:45:17.404Z,98629
2018-06-10T05:47:24.627Z,98634
2018-06-10T05:49:30.694Z,98624
2018-06-10T05:51:36.639Z,98629
2018-06-10T05:53:43.360Z,98628
2018-06-10T05:55:48.555Z,98623
2018-06-10T05:57:54.489Z,98625
2018-06-10T06:00:00.634Z,98623
2018-06-10T06:02:08.411Z,98624
2018-06-10T06:04:16.407Z,98630
2018-06-10T06:06:24.767Z,98631
2018-06-10T06:08:31.141Z,98641
2018-06-10T06:10:36.978Z,98644
2018-06-10T06:12:43.818Z,98646
2018-06-10T06:14:49.484Z,98644
2018-06-10T06:16:55.242Z,98642
2018-06-10T06:19:01.651Z,98643
2018-06-10T06:21:08.537Z,98647
2018-06-10T06:23:17.159Z,98644
2018-06-10T06:25:25.549Z,98639
2018-06-10T06:27:31.490Z,98640
2018-06-10T06:29:37.170Z,98642
2018-06-10T06:31:42.703Z,98639
2018-06-10T06:33:48.639Z,98646
2018-06-10T06:35:53.952Z,98641
2018-06-10T06:37:59.425Z,98636
2018-06-10T06:40:05.958Z,98645
2018-06-10T06:42:15.391Z,98643
2018-06-10T06:44:24.820Z,98642
2018-06-10T06:46:30.527Z,98634
2018-06-10T06:48:36.433Z,98633
2018-06-10T06:50:42.870Z,98641
2018-06-10T06:52:48.498Z,98633
2018-06-10T06:54:54.238Z,98640
2018-06-10T06:57:00.510Z,98640
2018-06-10T06:59:07.437Z,98640
2018-06-10T07:01:15.073Z,98644
2018-06-10T07:03:22.669Z,98644
2018-06-10T07:05:27.933Z,98648
2018-06-10T07:07:33.646Z,98642
2018-06-10T07:09:39.346Z,98647
2018-06-10T07:11:44.602Z,98651
2018-06-10T07:13:50.410Z,98646
2018-06-10T07:15:56.652Z,98642
2018-06-10T07:18:02.908Z,98648
2018-06-10T07:20:11.060Z,98649
2018-06-10T07:22:19.294Z,98651
2018-06-10T07:24:25.292Z,98653
2018-06-10T07:26:31.499Z,98655
2018-06-10T07:28:37.860Z,98647
2018-06-10T07:30:43.176Z,98657
2018-06-10T07:32:48.499Z,98656
2018-06-10T07:34:54.664Z,98657
2018-06-10T07:36:59.958Z,98657
2018-06-10T07:39:09.501Z,98657
2018-06-10T07:41:19.670Z,98658
2018-06-10T07:43:27.162Z,98659
2018-06-10T07:45:32.362Z,98662
2018-06-10T07:47:39.972Z,98666
2018-06-10T07:49:45.144Z,98667
2018-06-10T07:51:51.613Z,98671
2018-06-10T07:53:57.109Z,98669
2018-06-10T07:56:03.002Z,98662
2018-06-10T07:58:10.627Z,98660
2018-06-10T08:00:19.805Z,98664
2018-06-10T08:02:26.664Z,98663
2018-06-10T08:04:31.865Z,98668
2018-06-10T08:06:37.485Z,98673
2018-06-10T08:08:42.765Z,98661
2018-06-10T08:10:48.763Z,98668
2018-06-10T08:12:54.329Z,98667
2018-06-10T08:15:00.526Z,98665
2018-06-10T08:17:05.812Z,98666
2018-06-10T08:19:14.775Z,98666
2018-06-10T08:21:23.019Z,98672
2018-06-10T08:23:29.282Z,98668
2018-06-10T08:25:35.544Z,98668
2018-06-10T08:27:40.742Z,98675
2018-06-10T08:29:46.184Z,98670
2018-06-10T08:31:51.793Z,98670
2018-06-10T08:33:57.079Z,98677
2018-06-10T08:36:02.333Z,98676
2018-06-10T08:38:10.971Z,98689
2018-06-10T08:40:18.319Z,98678
2018-06-10T08:42:24.731Z,98681
2018-06-10T08:44:30.254Z,98680
2018-06-10T08:46:35.486Z,98674
2018-06-10T08:48:41.176Z,98685
2018-06-10T08:50:46.695Z,98682
2018-06-10T08:52:51.958Z,98691
2018-06-10T08:54:57.371Z,98686
2018-06-10T08:57:03.085Z,98691
2018-06-10T08:59:11.377Z,98691
2018-06-10T09:01:22.053Z,98696
2018-06-10T09:03:27.580Z,98689
2018-06-10T09:05:32.892Z,98688
2018-06-10T09:07:38.093Z,98691
2018-06-10T09:09:43.673Z,98690
2018-06-10T09:11:48.920Z,98689
2018-06-10T09:13:54.389Z,98687
2018-06-10T09:16:00.097Z,98693
2018-06-10T09:18:06.043Z,98706
2018-06-10T09:20:18.837Z,98704
2018-06-10T09:22:27.562Z,98707
2018-06-10T09:24:32.998Z,98712
2018-06-10T09:26:38.255Z,98708
2018-06-10T09:28:43.936Z,98708
2018-06-10T09:30:50.357Z,98712
2018-06-10T09:32:55.598Z,98710
2018-06-10T09:35:01.299Z,98711
2018-06-10T09:37:06.700Z,98709
2018-06-10T09:39:14.660Z,98707
2018-06-10T09:41:23.129Z,98708
2018-06-10T09:43:28.346Z,98709
2018-06-10T09:45:33.943Z,98708
2018-06-10T09:47:39.521Z,98703
2018-06-10T09:49:44.796Z,98711
2018-06-10T09:51:50.095Z,98708
2018-06-10T09:53:55.621Z,98711
2018-06-10T09:56:01.387Z,98706
2018-06-10T09:58:08.991Z,98699
2018-06-10T10:00:22.035Z,98692
2018-06-10T10:02:27.521Z,98704
2018-06-10T10:04:32.882Z,98696
2018-06-10T10:06:38.476Z,98691
2018-06-10T10:08:43.824Z,98685
2018-06-10T10:10:49.246Z,98691
2018-06-10T10:12:54.808Z,98688
2018-06-10T10:15:00.108Z,98696
2018-06-10T10:17:06.914Z,98701
2018-06-10T10:19:15.555Z,98706
2018-06-10T10:21:23.847Z,98704
2018-06-10T10:23:29.246Z,98702
2018-06-10T10:25:34.848Z,98700
2018-06-10T10:27:40.010Z,98722
2018-06-10T10:29:45.430Z,98714
2018-06-10T10:31:50.970Z,98698
2018-06-10T10:33:56.272Z,98698
2018-06-10T10:36:01.721Z,98705
2018-06-10T10:38:09.985Z,98705
2018-06-10T10:40:19.498Z,98699
2018-06-10T10:42:26.209Z,98684
2018-06-10T10:44:31.791Z,98690
2018-06-10T10:46:37.109Z,98701
2018-06-10T10:48:42.460Z,98682
2018-06-10T10:50:47.976Z,98679
2018-06-10T10:52:53.207Z,98675
2018-06-10T10:54:58.892Z,98666
2018-06-10T10:57:04.833Z,98678
2018-06-10T10:59:12.746Z,98677
2018-06-10T11:01:19.613Z,98670
2018-06-10T11:03:27.554Z,98673
2018-06-10T11:05:33.457Z,98663
2018-06-10T11:07:38.831Z,98666
2018-06-10T11:09:44.550Z,98656
2018-06-10T11:11:50.136Z,98661
2018-06-10T11:13:57.310Z,98660
2018-06-10T11:16:04.407Z,98662
2018-06-10T11:18:22.360Z,98659
2018-06-10T11:20:29.385Z,98654
2018-06-10T11:22:37.218Z,98657
2018-06-10T11:24:43.832Z,98635
2018-06-10T11:26:55.774Z,98645
2018-06-10T11:29:18.994Z,98640
2018-06-10T11:31:28.931Z,98644
2018-06-10T11:33:35.655Z,98642
2018-06-10T11:35:43.651Z,98643
2018-06-10T11:37:49.202Z,98643
2018-06-10T11:39:58.329Z,98639
2018-06-10T11:42:05.919Z,98638
2018-06-10T11:44:17.503Z,98629
2018-06-10T11:46:25.834Z,98632
2018-06-10T11:48:32.088Z,98629
2018-06-10T11:52:59.476Z,98613
2018-06-10T11:55:11.793Z,98609
2018-06-10T11:57:19.879Z,98608
2018-06-10T11:59:26.432Z,98604
2018-06-10T12:01:34.068Z,98601
2018-06-10T12:03:43.449Z,98598
2018-06-10T12:05:52.176Z,98589
2018-06-10T12:08:03.330Z,98588
2018-06-10T12:10:14.291Z,98619
2018-06-10T12:12:24.395Z,98601
2018-06-10T12:16:45.539Z,98598
2018-06-10T12:18:53.303Z,98603
2018-06-10T12:20:59.247Z,98609
2018-06-10T12:23:05.586Z,98609
2018-06-10T12:25:14.316Z,98611
2018-06-10T12:27:23.350Z,98588
2018-06-10T12:29:28.674Z,98618
2018-06-10T12:31:34.981Z,98621
2018-06-10T12:33:44.806Z,98631
2018-06-10T12:35:50.134Z,98621
2018-06-10T12:37:55.422Z,98627
2018-06-10T12:40:01.336Z,98629
2018-06-10T12:42:08.229Z,98625
2018-06-10T12:44:17.071Z,98625
2018-06-10T12:46:25.068Z,98626
2018-06-10T12:48:31.640Z,98624
2018-06-10T12:50:37.546Z,98642
2018-06-10T12:52:43.267Z,98641
2018-06-10T12:54:48.621Z,98631
2018-06-10T12:56:55.197Z,98639
2018-06-10T12:59:01.279Z,98635
2018-06-10T13:01:07.607Z,98635
2018-06-10T13:03:15.547Z,98637
2018-06-10T13:05:23.824Z,98638
2018-06-10T13:07:29.745Z,98635
2018-06-10T13:09:35.808Z,98624
2018-06-10T13:11:41.385Z,98629
2018-06-10T13:13:46.610Z,98624
2018-06-10T13:15:51.894Z,98626
2018-06-10T13:17:57.601Z,98629
2018-06-10T13:20:03.008Z,98620
2018-06-10T13:22:11.428Z,98561
2018-06-10T13:24:22.761Z,98638
2018-06-10T13:26:28.060Z,98624
2018-06-10T13:28:33.381Z,98623
2018-06-10T13:30:39.818Z,98572
2018-06-10T13:32:46.021Z,98635
2018-06-10T13:34:51.769Z,98631
2018-06-10T13:36:57.287Z,98638
2018-06-10T13:39:11.957Z,98590
2018-06-10T13:41:30.220Z,98565
2018-06-10T13:43:35.930Z,98627
2018-06-10T13:45:41.348Z,98577
2018-06-10T13:47:47.001Z,98583
2018-06-10T13:49:52.699Z,98623
2018-06-10T13:51:57.967Z,98617
2018-06-10T13:54:03.208Z,98621
2018-06-10T13:56:10.167Z,98603
2018-06-10T13:58:20.820Z,98588
2018-06-10T14:00:26.281Z,98575
2018-06-10T14:02:32.262Z,98572
2018-06-10T14:04:37.510Z,98571
2018-06-10T14:06:43.290Z,98583
2018-06-10T14:08:48.874Z,98557
2018-06-10T14:10:54.171Z,98554
2018-06-10T14:12:59.493Z,98543
2018-06-10T14:15:05.761Z,98545
2018-06-10T14:17:15.175Z,98535
2018-06-10T14:19:25.458Z,98532
2018-06-10T14:21:30.924Z,98537
2018-06-10T14:25:45.977Z,98538
2018-06-10T14:27:51.478Z,98541
2018-06-10T14:29:56.789Z,98541
2018-06-10T14:32:02.181Z,98546
2018-06-10T14:34:10.558Z,98531
2018-06-10T14:36:22.090Z,98533
2018-06-10T14:38:28.251Z,98540
2018-06-10T14:40:33.916Z,98544
2018-06-10T14:42:39.294Z,98535
2018-06-10T14:44:44.410Z,98538
2018-06-10T14:46:50.170Z,98533
2018-06-10T14:49:44.340Z,98539.00
2018-06-10T14:51:49.735Z,98537.00
2018-06-10T14:53:55.438Z,98537.00
2018-06-10T14:56:00.678Z,98538.00
2018-06-10T14:58:07.698Z,98541.00
2018-06-10T15:00:18.323Z,98531.00
2018-06-10T15:02:24.627Z,98545.00
2018-06-10T15:04:30.028Z,98538.00
2018-06-10T15:06:35.614Z,98531.00
2018-06-10T15:08:42.182Z,98530.00
2018-06-10T15:12:16.401Z,98538.00
2018-06-10T15:14:22.806Z,98520.00
2018-06-10T15:16:29.228Z,98513.00
2018-06-10T15:18:35.132Z,98534.00
2018-06-10T15:20:40.498Z,98520.00
2018-06-10T15:22:46.046Z,98518.00
2018-06-10T15:24:53.546Z,98519.00
2018-06-10T15:26:59.003Z,98512.00
2018-06-10T15:29:04.823Z,98508.00
2018-06-10T15:31:13.822Z,98509.00
2018-06-10T15:33:22.654Z,98502.00
2018-06-10T15:35:27.962Z,98518.00
2018-06-10T15:37:34.348Z,98515.00
2018-06-10T15:39:39.942Z,98513.00
2018-06-10T15:41:46.938Z,98505.00
2018-06-10T15:43:53.033Z,98507.00
2018-06-10T15:45:58.536Z,98519.00
2018-06-10T15:48:04.186Z,98503.00
2018-06-10T15:50:12.855Z,98519.00
2018-06-10T15:52:22.872Z,98507.00
2018-06-10T15:54:28.646Z,98511.00
2018-06-10T15:56:35.496Z,98517.00
2018-06-10T15:58:41.618Z,98516.00
2018-06-10T16:00:48.066Z,98524.00
2018-06-10T16:02:53.635Z,98523.00
2018-06-10T16:04:59.170Z,98519.00
2018-06-10T16:07:06.133Z,98518.00
2018-06-10T16:09:13.488Z,98527.00
2018-06-10T16:11:22.404Z,98513.00
2018-06-10T16:13:31.961Z,98531.00
2018-06-10T16:15:38.043Z,98528.00
2018-06-10T16:17:43.884Z,98517.00
2018-06-10T16:19:49.761Z,98511.00
2018-06-10T16:21:55.441Z,98527.00
2018-06-10T16:24:03.962Z,98516.00
2018-06-10T16:26:11.986Z,98520.00
2018-06-10T16:28:19.576Z,98530.00
2018-06-10T16:30:26.377Z,98522.00
2018-06-10T16:32:31.948Z,98519.00
2018-06-10T16:34:37.713Z,98521.00
2018-06-10T16:36:43.192Z,98528.00
2018-06-10T16:38:48.745Z,98511.00
2018-06-10T16:40:54.755Z,98503.00
2018-06-10T16:43:00.216Z,98519.00
2018-06-10T16:47:21.186Z,98520.00
2018-06-10T16:49:27.810Z,98529.00
2018-06-10T16:51:33.523Z,98532.00
2018-06-10T16:53:40.750Z,98531.00
2018-06-10T16:55:46.456Z,98527.00
2018-06-10T16:57:52.611Z,98526.00
2018-06-10T16:59:58.144Z,98520.00
2018-06-10T17:02:10.728Z,98515.00
2018-06-10T17:04:18.148Z,98515.00
2018-06-10T17:06:25.859Z,98529.00
2018-06-10T17:08:31.652Z,98537.00
2018-06-10T17:10:39.717Z,98542.00
2018-06-10T17:12:47.104Z,98540.00
2018-06-10T17:14:54.278Z,98546.00
2018-06-10T17:17:00.085Z,98549.00
2018-06-10T17:19:05.894Z,98538.00
2018-06-10T17:21:14.366Z,98551.00
2018-06-10T17:23:25.733Z,98564.00
2018-06-10T17:25:32.013Z,98558.00
2018-06-10T17:27:37.416Z,98553.00
2018-06-10T17:29:43.230Z,98551.00
2018-06-10T17:31:49.092Z,98558.00
2018-06-10T17:33:55.287Z,98565.00
2018-06-10T17:36:01.982Z,98559.00
2018-06-10T17:38:10.064Z,98568.00
2018-06-10T17:40:21.019Z,98550.00
2018-06-10T17:42:28.874Z,98566.00
2018-06-10T17:44:34.686Z,98566.00
2018-06-10T17:46:39.954Z,98565.00
2018-06-10T17:48:45.206Z,98559.00
2018-06-10T17:50:50.970Z,98561.00
2018-06-10T17:52:56.439Z,98559.00
2018-06-10T17:55:02.095Z,98554.00
2018-06-10T17:57:14.821Z,98559.00
2018-06-10T17:59:23.194Z,98566.00
2018-06-10T18:01:28.626Z,98569.00
2018-06-10T18:03:34.442Z,98575.00
2018-06-10T18:05:39.887Z,98568.00
2018-06-10T18:07:45.311Z,98578.00
2018-06-10T18:09:51.503Z,98575.00
2018-06-10T18:11:57.111Z,98568.00
2018-06-10T18:14:02.821Z,98581.00
2018-06-10T18:16:13.041Z,98587.00
2018-06-10T18:18:19.890Z,98583.00
2018-06-10T18:20:25.466Z,98583.00
2018-06-10T18:22:33.054Z,98583.00
2018-06-10T18:24:38.737Z,98584.00
2018-06-10T18:26:44.265Z,98582.00
2018-06-10T18:28:51.355Z,98582.00
2018-06-10T18:30:57.540Z,98588.00
2018-06-10T18:33:03.676Z,98585.00
2018-06-10T18:35:12.969Z,98586.00
2018-06-10T18:37:23.778Z,98592.00
2018-06-10T18:39:29.618Z,98591.00
2018-06-10T18:41:36.873Z,98586.00
2018-06-10T18:43:43.343Z,98592.00
2018-06-10T18:45:50.341Z,98583.00
2018-06-10T18:47:56.846Z,98601.00
2018-06-10T18:50:02.645Z,98587.00
2018-06-10T18:52:11.897Z,98586.00
2018-06-10T18:54:21.129Z,98588.00
2018-06-10T18:56:27.265Z,98590.00
2018-06-10T18:58:35.861Z,98597.00
2018-06-10T19:00:42.427Z,98597.00
2018-06-10T19:02:47.952Z,98608.00
2018-06-10T19:04:53.405Z,98609.00
2018-06-10T19:06:59.341Z,98596.00
2018-06-10T19:09:06.326Z,98608.00
2018-06-10T19:11:14.790Z,98611.00
2018-06-10T19:13:23.522Z,98614.00
2018-06-10T19:15:29.238Z,98616.00
2018-06-10T19:17:34.575Z,98613.00
2018-06-10T19:19:40.183Z,98613.00
2018-06-10T19:21:45.770Z,98618.00
2018-06-10T19:23:51.201Z,98619.00
2018-06-10T19:25:56.838Z,98615.00
2018-06-10T19:28:02.376Z,98614.00
2018-06-10T19:30:09.903Z,98624.00
2018-06-10T19:32:18.542Z,98636.00
2018-06-10T19:34:24.962Z,98643.00
2018-06-10T19:36:30.416Z,98645.00
2018-06-10T19:38:36.245Z,98653.00
2018-06-10T19:40:41.518Z,98657.00
2018-06-10T19:42:46.791Z,98658.00
2018-06-10T19:44:56.444Z,98660.00
2018-06-10T19:47:02.113Z,98660.00
2018-06-10T19:49:09.526Z,98662.00
2018-06-10T19:51:17.796Z,98668.00
2018-06-10T19:53:25.162Z,98664.00
2018-06-10T19:55:30.674Z,98669.00
2018-06-10T19:57:36.864Z,98678.00
2018-06-10T19:59:42.155Z,98682.00
2018-06-10T20:01:47.399Z,98678.00
2018-06-10T20:03:53.184Z,98683.00
2018-06-10T20:05:58.441Z,98683.00
2018-06-10T20:08:04.116Z,98680.00
2018-06-10T20:10:13.172Z,98684.00
2018-06-10T20:12:21.353Z,98681.00
2018-06-10T20:14:26.684Z,98682.00
2018-06-10T20:16:32.206Z,98682.00
2018-06-10T20:18:37.674Z,98685.00
2018-06-10T20:20:48.355Z,98683.00
2018-06-10T20:22:54.078Z,98691.00
2018-06-10T20:24:59.378Z,98697.00
2018-06-10T20:27:05.431Z,98700.00
2018-06-10T20:29:14.098Z,98704.00
2018-06-10T20:31:24.256Z,98707.00
2018-06-10T20:33:30.640Z,98710.00
2018-06-10T20:35:36.319Z,98718.00
2018-06-10T20:37:41.939Z,98720.00
2018-06-10T20:39:47.295Z,98719.00
2018-06-10T20:41:52.980Z,98718.00
2018-06-10T20:43:58.333Z,98724.00
2018-06-10T20:46:03.738Z,98729.00
2018-06-10T20:48:12.594Z,98724.00
2018-06-10T20:50:20.392Z,98725.00
2018-06-10T20:52:27.730Z,98721.00
2018-06-10T20:54:33.375Z,98711.00
2018-06-10T20:56:38.966Z,98719.00
2018-06-10T20:58:44.325Z,98711.00
2018-06-10T21:00:49.849Z,98710.00
2018-06-10T21:02:55.476Z,98720.00
2018-06-10T21:05:01.034Z,98729.00
2018-06-10T21:07:09.676Z,98728.00
2018-06-10T21:11:31.478Z,98733.00
2018-06-10T21:13:37.098Z,98741.00
2018-06-10T21:15:46.109Z,98741.00
2018-06-10T22:01:12.581Z,98711.00
2018-06-10T22:03:21.825Z,98717.00
2018-06-10T22:05:29.844Z,98720.00
2018-06-10T22:07:35.655Z,98722.00
2018-06-10T22:09:41.034Z,98719.00
2018-06-10T22:11:46.323Z,98711.00
2018-06-10T22:13:51.847Z,98716.00
2018-06-10T22:15:57.194Z,98720.00
2018-06-10T22:18:02.352Z,98725.00
2018-06-10T22:20:10.646Z,98727.00
2018-06-10T22:22:20.896Z,98727.00
2018-06-10T22:24:30.398Z,98730.00
2018-06-10T22:26:35.945Z,98728.00
2018-06-10T22:28:41.154Z,98734.00
2018-06-10T22:30:46.350Z,98735.00
2018-06-10T22:32:52.024Z,98732.00
2018-06-10T22:34:57.226Z,98731.00
2018-06-10T22:37:03.235Z,98740.00
2018-06-10T22:39:13.507Z,98737.00
2018-06-10T22:41:21.566Z,98732.00
2018-06-10T22:43:26.988Z,98731.00
2018-06-10T22:45:32.522Z,98741.00
2018-06-10T22:47:37.765Z,98736.00
2018-06-10T22:49:42.938Z,98737.00
2018-06-10T22:51:48.762Z,98737.00
2018-06-10T22:55:02.235Z,98740.00
2018-06-10T22:57:11.669Z,98742.00
2018-06-10T22:59:18.626Z,98741.00
2018-06-10T23:01:26.970Z,98742.00
2018-06-10T23:03:32.389Z,98744.00
2018-06-10T23:05:37.592Z,98746.00
2018-06-10T23:07:42.795Z,98743.00
2018-06-10T23:09:48.896Z,98750.00
2018-06-10T23:11:54.811Z,98745.00
2018-06-10T23:14:01.111Z,98736.00
2018-06-10T23:16:08.113Z,98729.00
2018-06-10T23:18:19.065Z,98728.00
2018-06-10T23:20:27.463Z,98726.00
2018-06-10T23:22:33.034Z,98726.00
2018-06-10T23:24:38.248Z,98724.00
2018-06-10T23:26:44.226Z,98725.00
2018-06-10T23:28:49.867Z,98723.00
2018-06-10T23:30:55.612Z,98725.00
2018-06-10T23:33:01.517Z,98726.00
2018-06-10T23:35:10.205Z,98728.00
2018-06-10T23:37:19.430Z,98728.00
2018-06-10T23:39:25.233Z,98734.00
2018-06-10T23:41:31.230Z,98741.00
2018-06-10T23:43:36.460Z,98753.00
2018-06-10T23:45:41.988Z,98748.00
2018-06-10T23:47:47.656Z,98749.00
2018-06-10T23:49:53.772Z,98753.00
2018-06-10T23:52:00.134Z,98754.00
2018-06-10T23:54:07.451Z,98752.00
2018-06-10T23:56:18.229Z,98751.00
2018-06-10T23:58:25.067Z,98742.00
